sensor_id;sensor_type;location;lat;lon;timestamp;P1;durP1;ratioP1;P2;durP2;ratioP2
12348;SDS011;5974;42.710;27.258;2023-11-19T00:00:14;0.10;;;0.10;;
12348;SDS011;5974;42.710;27.258;2023-11-19T00:02:42;0.00;;;0.00;;
12348;SDS011;5974;42.710;27.258;2023-11-19T00:05:09;0.00;;;0.00;;
12348;SDS011;5974;42.710;27.258;2023-11-19T00:07:36;0.10;;;0.10;;
12348;SDS011;5974;42.710;27.258;2023-11-19T00:10:06;0.10;;;0.10;;
12348;SDS011;5974;42.710;27.258;2023-11-19T00:12:35;0.10;;;0.10;;
12348;SDS011;5974;42.710;27.258;2023-11-19T00:15:03;0.00;;;0.00;;
12348;SDS011;5974;42.710;27.258;2023-11-19T00:17:31;0.60;;;0.60;;
12348;SDS011;5974;42.710;27.258;2023-11-19T00:19:58;0.50;;;0.50;;
12348;SDS011;5974;42.710;27.258;2023-11-19T00:22:25;0.40;;;0.40;;
12348;SDS011;5974;42.710;27.258;2023-11-19T00:24:53;0.60;;;0.60;;
12348;SDS011;5974;42.710;27.258;2023-11-19T00:27:19;1.30;;;0.60;;
12348;SDS011;5974;42.710;27.258;2023-11-19T00:29:46;0.70;;;0.70;;
12348;SDS011;5974;42.710;27.258;2023-11-19T00:32:15;0.60;;;0.60;;
12348;SDS011;5974;42.710;27.258;2023-11-19T00:34:43;0.60;;;0.60;;
12348;SDS011;5974;42.710;27.258;2023-11-19T00:37:12;1.03;;;0.50;;
12348;SDS011;5974;42.710;27.258;2023-11-19T00:39:38;0.60;;;0.60;;
12348;SDS011;5974;42.710;27.258;2023-11-19T00:42:05;0.60;;;0.60;;
12348;SDS011;5974;42.710;27.258;2023-11-19T00:44:32;0.70;;;0.70;;
12348;SDS011;5974;42.710;27.258;2023-11-19T00:46:59;0.67;;;0.67;;
12348;SDS011;5974;42.710;27.258;2023-11-19T00:49:27;0.10;;;0.10;;
12348;SDS011;5974;42.710;27.258;2023-11-19T00:51:55;0.00;;;0.00;;
12348;SDS011;5974;42.710;27.258;2023-11-19T00:54:22;0.03;;;0.03;;
12348;SDS011;5974;42.710;27.258;2023-11-19T00:56:50;0.10;;;0.10;;
12348;SDS011;5974;42.710;27.258;2023-11-19T00:59:17;0.10;;;0.10;;
12348;SDS011;5974;42.710;27.258;2023-11-19T01:01:44;0.07;;;0.07;;
12348;SDS011;5974;42.710;27.258;2023-11-19T01:04:13;0.00;;;0.00;;
12348;SDS011;5974;42.710;27.258;2023-11-19T01:06:41;0.03;;;0.03;;
12348;SDS011;5974;42.710;27.258;2023-11-19T01:09:08;0.20;;;0.20;;
12348;SDS011;5974;42.710;27.258;2023-11-19T01:11:35;0.10;;;0.10;;
12348;SDS011;5974;42.710;27.258;2023-11-19T01:14:02;0.10;;;0.10;;
12348;SDS011;5974;42.710;27.258;2023-11-19T01:16:29;0.10;;;0.10;;
12348;SDS011;5974;42.710;27.258;2023-11-19T01:18:56;0.10;;;0.10;;
12348;SDS011;5974;42.710;27.258;2023-11-19T01:21:23;0.33;;;0.33;;
12348;SDS011;5974;42.710;27.258;2023-11-19T01:23:51;0.00;;;0.00;;
12348;SDS011;5974;42.710;27.258;2023-11-19T01:26:18;0.10;;;0.10;;
12348;SDS011;5974;42.710;27.258;2023-11-19T01:28:45;0.00;;;0.00;;
12348;SDS011;5974;42.710;27.258;2023-11-19T01:31:14;0.10;;;0.10;;
12348;SDS011;5974;42.710;27.258;2023-11-19T01:33:41;0.10;;;0.10;;
12348;SDS011;5974;42.710;27.258;2023-11-19T01:36:09;0.00;;;0.00;;
12348;SDS011;5974;42.710;27.258;2023-11-19T01:38:39;0.00;;;0.00;;
12348;SDS011;5974;42.710;27.258;2023-11-19T01:41:07;0.00;;;0.00;;
12348;SDS011;5974;42.710;27.258;2023-11-19T01:43:34;0.00;;;0.00;;
12348;SDS011;5974;42.710;27.258;2023-11-19T01:46:02;0.00;;;0.00;;
12348;SDS011;5974;42.710;27.258;2023-11-19T01:48:31;0.10;;;0.10;;
12348;SDS011;5974;42.710;27.258;2023-11-19T01:51:01;0.10;;;0.10;;
12348;SDS011;5974;42.710;27.258;2023-11-19T01:53:30;0.00;;;0.00;;
12348;SDS011;5974;42.710;27.258;2023-11-19T01:55:58;0.07;;;0.07;;
12348;SDS011;5974;42.710;27.258;2023-11-19T01:58:26;2.23;;;2.07;;
12348;SDS011;5974;42.710;27.258;2023-11-19T02:00:55;1.93;;;1.83;;
12348;SDS011;5974;42.710;27.258;2023-11-19T02:03:23;1.90;;;1.80;;
12348;SDS011;5974;42.710;27.258;2023-11-19T02:05:53;2.27;;;2.07;;
12348;SDS011;5974;42.710;27.258;2023-11-19T02:08:20;1.93;;;1.83;;
12348;SDS011;5974;42.710;27.258;2023-11-19T02:10:46;2.00;;;1.90;;
12348;SDS011;5974;42.710;27.258;2023-11-19T02:13:13;2.47;;;2.03;;
12348;SDS011;5974;42.710;27.258;2023-11-19T02:15:42;3.03;;;2.00;;
12348;SDS011;5974;42.710;27.258;2023-11-19T02:18:18;2.30;;;2.03;;
12348;SDS011;5974;42.710;27.258;2023-11-19T02:20:47;2.40;;;2.20;;
12348;SDS011;5974;42.710;27.258;2023-11-19T02:23:14;2.47;;;2.27;;
12348;SDS011;5974;42.710;27.258;2023-11-19T02:25:41;2.43;;;2.30;;
12348;SDS011;5974;42.710;27.258;2023-11-19T02:28:16;2.33;;;2.20;;
12348;SDS011;5974;42.710;27.258;2023-11-19T02:30:43;2.40;;;2.20;;
12348;SDS011;5974;42.710;27.258;2023-11-19T02:33:10;2.10;;;2.00;;
12348;SDS011;5974;42.710;27.258;2023-11-19T02:35:38;2.03;;;1.93;;
12348;SDS011;5974;42.710;27.258;2023-11-19T02:38:05;2.13;;;2.03;;
12348;SDS011;5974;42.710;27.258;2023-11-19T02:40:33;2.17;;;2.00;;
12348;SDS011;5974;42.710;27.258;2023-11-19T02:43:00;2.40;;;2.23;;
12348;SDS011;5974;42.710;27.258;2023-11-19T02:45:28;1.80;;;1.70;;
12348;SDS011;5974;42.710;27.258;2023-11-19T02:47:56;2.00;;;1.80;;
12348;SDS011;5974;42.710;27.258;2023-11-19T02:50:23;2.00;;;1.90;;
12348;SDS011;5974;42.710;27.258;2023-11-19T02:52:51;3.53;;;2.43;;
12348;SDS011;5974;42.710;27.258;2023-11-19T02:55:21;2.17;;;2.07;;
12348;SDS011;5974;42.710;27.258;2023-11-19T02:57:49;2.40;;;2.20;;
12348;SDS011;5974;42.710;27.258;2023-11-19T03:00:18;2.30;;;2.20;;
12348;SDS011;5974;42.710;27.258;2023-11-19T03:02:50;2.40;;;2.20;;
12348;SDS011;5974;42.710;27.258;2023-11-19T03:05:24;1.87;;;1.73;;
12348;SDS011;5974;42.710;27.258;2023-11-19T03:07:51;2.40;;;2.20;;
12348;SDS011;5974;42.710;27.258;2023-11-19T03:10:18;2.27;;;2.07;;
12348;SDS011;5974;42.710;27.258;2023-11-19T03:12:45;1.97;;;1.87;;
12348;SDS011;5974;42.710;27.258;2023-11-19T03:15:12;2.43;;;2.23;;
12348;SDS011;5974;42.710;27.258;2023-11-19T03:17:39;2.30;;;2.10;;
12348;SDS011;5974;42.710;27.258;2023-11-19T03:20:09;2.10;;;2.00;;
12348;SDS011;5974;42.710;27.258;2023-11-19T03:22:40;2.00;;;1.90;;
12348;SDS011;5974;42.710;27.258;2023-11-19T03:25:08;2.20;;;2.10;;
12348;SDS011;5974;42.710;27.258;2023-11-19T03:27:35;2.13;;;2.03;;
12348;SDS011;5974;42.710;27.258;2023-11-19T03:30:02;2.00;;;1.90;;
12348;SDS011;5974;42.710;27.258;2023-11-19T03:32:30;2.37;;;2.17;;
12348;SDS011;5974;42.710;27.258;2023-11-19T03:34:58;2.80;;;2.60;;
12348;SDS011;5974;42.710;27.258;2023-11-19T03:37:26;2.93;;;2.63;;
12348;SDS011;5974;42.710;27.258;2023-11-19T03:39:53;2.93;;;2.73;;
12348;SDS011;5974;42.710;27.258;2023-11-19T03:42:24;3.10;;;2.90;;
12348;SDS011;5974;42.710;27.258;2023-11-19T03:44:51;2.60;;;2.40;;
12348;SDS011;5974;42.710;27.258;2023-11-19T03:47:18;2.90;;;2.70;;
12348;SDS011;5974;42.710;27.258;2023-11-19T03:49:47;3.27;;;2.97;;
12348;SDS011;5974;42.710;27.258;2023-11-19T03:52:15;3.30;;;3.00;;
12348;SDS011;5974;42.710;27.258;2023-11-19T03:54:43;2.70;;;2.50;;
12348;SDS011;5974;42.710;27.258;2023-11-19T03:57:10;3.20;;;2.90;;
12348;SDS011;5974;42.710;27.258;2023-11-19T03:59:38;3.00;;;2.80;;
12348;SDS011;5974;42.710;27.258;2023-11-19T04:02:05;5.53;;;3.00;;
12348;SDS011;5974;42.710;27.258;2023-11-19T04:04:32;3.60;;;3.30;;
12348;SDS011;5974;42.710;27.258;2023-11-19T04:07:01;3.53;;;3.23;;
12348;SDS011;5974;42.710;27.258;2023-11-19T04:09:29;3.30;;;3.00;;
12348;SDS011;5974;42.710;27.258;2023-11-19T04:11:57;3.23;;;2.90;;
12348;SDS011;5974;42.710;27.258;2023-11-19T04:14:24;3.07;;;2.87;;
12348;SDS011;5974;42.710;27.258;2023-11-19T04:16:51;3.20;;;3.00;;
12348;SDS011;5974;42.710;27.258;2023-11-19T04:19:17;3.23;;;3.00;;
12348;SDS011;5974;42.710;27.258;2023-11-19T04:21:44;3.77;;;3.47;;
12348;SDS011;5974;42.710;27.258;2023-11-19T04:24:11;3.87;;;3.50;;
12348;SDS011;5974;42.710;27.258;2023-11-19T04:26:42;4.00;;;3.60;;
12348;SDS011;5974;42.710;27.258;2023-11-19T04:29:12;4.93;;;3.60;;
12348;SDS011;5974;42.710;27.258;2023-11-19T04:31:40;3.60;;;3.30;;
12348;SDS011;5974;42.710;27.258;2023-11-19T04:34:07;4.47;;;3.93;;
12348;SDS011;5974;42.710;27.258;2023-11-19T04:36:34;3.60;;;3.30;;
12348;SDS011;5974;42.710;27.258;2023-11-19T04:39:00;3.90;;;3.50;;
12348;SDS011;5974;42.710;27.258;2023-11-19T04:41:28;4.13;;;3.73;;
12348;SDS011;5974;42.710;27.258;2023-11-19T04:43:55;5.20;;;4.20;;
12348;SDS011;5974;42.710;27.258;2023-11-19T04:46:23;4.40;;;3.90;;
12348;SDS011;5974;42.710;27.258;2023-11-19T04:48:50;3.80;;;3.50;;
12348;SDS011;5974;42.710;27.258;2023-11-19T04:51:17;4.40;;;3.93;;
12348;SDS011;5974;42.710;27.258;2023-11-19T04:53:44;4.57;;;3.93;;
12348;SDS011;5974;42.710;27.258;2023-11-19T04:56:11;4.40;;;4.00;;
12348;SDS011;5974;42.710;27.258;2023-11-19T04:58:38;4.70;;;4.20;;
12348;SDS011;5974;42.710;27.258;2023-11-19T05:01:05;4.33;;;3.93;;
12348;SDS011;5974;42.710;27.258;2023-11-19T05:03:34;5.80;;;4.27;;
12348;SDS011;5974;42.710;27.258;2023-11-19T05:06:01;5.63;;;4.40;;
12348;SDS011;5974;42.710;27.258;2023-11-19T05:08:28;4.87;;;4.20;;
12348;SDS011;5974;42.710;27.258;2023-11-19T05:10:55;5.10;;;4.27;;
12348;SDS011;5974;42.710;27.258;2023-11-19T05:13:22;4.60;;;4.20;;
12348;SDS011;5974;42.710;27.258;2023-11-19T05:15:49;4.20;;;3.80;;
12348;SDS011;5974;42.710;27.258;2023-11-19T05:18:17;5.03;;;4.20;;
12348;SDS011;5974;42.710;27.258;2023-11-19T05:20:45;4.70;;;3.97;;
12348;SDS011;5974;42.710;27.258;2023-11-19T05:23:12;5.27;;;3.97;;
12348;SDS011;5974;42.710;27.258;2023-11-19T05:25:39;5.53;;;4.50;;
12348;SDS011;5974;42.710;27.258;2023-11-19T05:28:06;3.50;;;3.20;;
12348;SDS011;5974;42.710;27.258;2023-11-19T05:30:33;3.63;;;3.33;;
12348;SDS011;5974;42.710;27.258;2023-11-19T05:33:00;3.73;;;3.43;;
12348;SDS011;5974;42.710;27.258;2023-11-19T05:35:27;4.23;;;3.83;;
12348;SDS011;5974;42.710;27.258;2023-11-19T05:37:55;4.10;;;3.80;;
12348;SDS011;5974;42.710;27.258;2023-11-19T05:40:22;4.03;;;3.30;;
12348;SDS011;5974;42.710;27.258;2023-11-19T05:42:49;3.73;;;3.43;;
12348;SDS011;5974;42.710;27.258;2023-11-19T05:45:16;4.33;;;3.67;;
12348;SDS011;5974;42.710;27.258;2023-11-19T05:47:43;4.73;;;4.00;;
12348;SDS011;5974;42.710;27.258;2023-11-19T05:50:10;3.40;;;3.10;;
12348;SDS011;5974;42.710;27.258;2023-11-19T05:52:37;4.73;;;4.10;;
12348;SDS011;5974;42.710;27.258;2023-11-19T05:55:06;5.37;;;3.40;;
12348;SDS011;5974;42.710;27.258;2023-11-19T05:57:35;5.07;;;4.20;;
12348;SDS011;5974;42.710;27.258;2023-11-19T06:00:02;4.13;;;3.73;;
12348;SDS011;5974;42.710;27.258;2023-11-19T06:02:32;4.50;;;4.10;;
12348;SDS011;5974;42.710;27.258;2023-11-19T06:04:59;4.47;;;3.90;;
12348;SDS011;5974;42.710;27.258;2023-11-19T06:07:26;4.87;;;3.83;;
12348;SDS011;5974;42.710;27.258;2023-11-19T06:09:53;5.10;;;4.10;;
12348;SDS011;5974;42.710;27.258;2023-11-19T06:12:21;4.63;;;4.23;;
12348;SDS011;5974;42.710;27.258;2023-11-19T06:14:48;4.30;;;3.90;;
12348;SDS011;5974;42.710;27.258;2023-11-19T06:17:15;4.97;;;4.47;;
12348;SDS011;5974;42.710;27.258;2023-11-19T06:19:42;4.83;;;4.33;;
12348;SDS011;5974;42.710;27.258;2023-11-19T06:22:10;5.20;;;4.70;;
12348;SDS011;5974;42.710;27.258;2023-11-19T06:24:37;4.80;;;4.33;;
12348;SDS011;5974;42.710;27.258;2023-11-19T06:27:04;6.40;;;4.40;;
12348;SDS011;5974;42.710;27.258;2023-11-19T06:29:32;5.40;;;4.90;;
12348;SDS011;5974;42.710;27.258;2023-11-19T06:31:59;5.57;;;4.60;;
12348;SDS011;5974;42.710;27.258;2023-11-19T06:34:25;5.33;;;4.83;;
12348;SDS011;5974;42.710;27.258;2023-11-19T06:36:52;5.53;;;4.07;;
12348;SDS011;5974;42.710;27.258;2023-11-19T06:39:19;5.20;;;4.70;;
12348;SDS011;5974;42.710;27.258;2023-11-19T06:41:46;5.70;;;5.10;;
12348;SDS011;5974;42.710;27.258;2023-11-19T06:44:13;5.50;;;5.00;;
12348;SDS011;5974;42.710;27.258;2023-11-19T06:46:42;6.23;;;5.13;;
12348;SDS011;5974;42.710;27.258;2023-11-19T06:49:08;5.70;;;5.20;;
12348;SDS011;5974;42.710;27.258;2023-11-19T06:51:35;6.57;;;5.07;;
12348;SDS011;5974;42.710;27.258;2023-11-19T06:54:07;5.17;;;4.67;;
12348;SDS011;5974;42.710;27.258;2023-11-19T06:56:33;5.53;;;5.03;;
12348;SDS011;5974;42.710;27.258;2023-11-19T06:59:00;5.70;;;5.10;;
12348;SDS011;5974;42.710;27.258;2023-11-19T07:01:27;5.10;;;4.60;;
12348;SDS011;5974;42.710;27.258;2023-11-19T07:03:55;5.53;;;4.67;;
12348;SDS011;5974;42.710;27.258;2023-11-19T07:06:23;5.70;;;5.00;;
12348;SDS011;5974;42.710;27.258;2023-11-19T07:08:49;4.93;;;4.50;;
12348;SDS011;5974;42.710;27.258;2023-11-19T07:11:16;5.03;;;4.27;;
12348;SDS011;5974;42.710;27.258;2023-11-19T07:13:43;5.20;;;4.67;;
12348;SDS011;5974;42.710;27.258;2023-11-19T07:16:11;6.47;;;4.67;;
12348;SDS011;5974;42.710;27.258;2023-11-19T07:18:40;5.67;;;4.70;;
12348;SDS011;5974;42.710;27.258;2023-11-19T07:21:10;5.13;;;4.63;;
12348;SDS011;5974;42.710;27.258;2023-11-19T07:23:37;6.00;;;4.43;;
12348;SDS011;5974;42.710;27.258;2023-11-19T07:26:04;5.40;;;4.20;;
12348;SDS011;5974;42.710;27.258;2023-11-19T07:28:33;5.57;;;5.07;;
12348;SDS011;5974;42.710;27.258;2023-11-19T07:31:00;6.50;;;4.63;;
12348;SDS011;5974;42.710;27.258;2023-11-19T07:33:27;5.30;;;4.43;;
12348;SDS011;5974;42.710;27.258;2023-11-19T07:35:54;4.93;;;4.20;;
12348;SDS011;5974;42.710;27.258;2023-11-19T07:38:22;4.97;;;4.47;;
12348;SDS011;5974;42.710;27.258;2023-11-19T07:40:49;4.70;;;4.20;;
12348;SDS011;5974;42.710;27.258;2023-11-19T07:43:16;5.53;;;4.50;;
12348;SDS011;5974;42.710;27.258;2023-11-19T07:45:43;4.83;;;4.33;;
12348;SDS011;5974;42.710;27.258;2023-11-19T07:48:10;4.73;;;4.30;;
12348;SDS011;5974;42.710;27.258;2023-11-19T07:50:38;4.80;;;4.30;;
12348;SDS011;5974;42.710;27.258;2023-11-19T07:53:05;5.60;;;4.13;;
12348;SDS011;5974;42.710;27.258;2023-11-19T07:55:34;4.83;;;4.33;;
12348;SDS011;5974;42.710;27.258;2023-11-19T07:58:01;3.80;;;3.50;;
12348;SDS011;5974;42.710;27.258;2023-11-19T08:00:27;4.23;;;3.87;;
12348;SDS011;5974;42.710;27.258;2023-11-19T08:02:54;4.10;;;3.70;;
12348;SDS011;5974;42.710;27.258;2023-11-19T08:05:21;4.13;;;3.73;;
12348;SDS011;5974;42.710;27.258;2023-11-19T08:07:49;3.60;;;3.30;;
12348;SDS011;5974;42.710;27.258;2023-11-19T08:10:17;4.40;;;4.00;;
12348;SDS011;5974;42.710;27.258;2023-11-19T08:12:45;4.13;;;3.73;;
12348;SDS011;5974;42.710;27.258;2023-11-19T08:15:12;4.43;;;4.03;;
12348;SDS011;5974;42.710;27.258;2023-11-19T08:17:39;4.33;;;3.93;;
12348;SDS011;5974;42.710;27.258;2023-11-19T08:20:06;4.73;;;3.77;;
12348;SDS011;5974;42.710;27.258;2023-11-19T08:22:35;4.20;;;3.70;;
12348;SDS011;5974;42.710;27.258;2023-11-19T08:25:02;4.63;;;4.00;;
12348;SDS011;5974;42.710;27.258;2023-11-19T08:27:30;4.17;;;3.53;;
12348;SDS011;5974;42.710;27.258;2023-11-19T08:29:58;3.97;;;3.67;;
12348;SDS011;5974;42.710;27.258;2023-11-19T08:32:26;4.13;;;3.73;;
12348;SDS011;5974;42.710;27.258;2023-11-19T08:34:53;3.60;;;3.30;;
12348;SDS011;5974;42.710;27.258;2023-11-19T08:37:21;3.67;;;3.23;;
12348;SDS011;5974;42.710;27.258;2023-11-19T08:39:48;3.57;;;3.27;;
12348;SDS011;5974;42.710;27.258;2023-11-19T08:42:15;3.40;;;3.10;;
12348;SDS011;5974;42.710;27.258;2023-11-19T08:44:42;3.50;;;3.20;;
12348;SDS011;5974;42.710;27.258;2023-11-19T08:47:14;3.20;;;2.90;;
12348;SDS011;5974;42.710;27.258;2023-11-19T08:49:41;4.07;;;3.00;;
12348;SDS011;5974;42.710;27.258;2023-11-19T08:52:08;3.37;;;3.10;;
12348;SDS011;5974;42.710;27.258;2023-11-19T08:54:35;3.97;;;3.23;;
12348;SDS011;5974;42.710;27.258;2023-11-19T08:57:02;3.23;;;2.93;;
12348;SDS011;5974;42.710;27.258;2023-11-19T08:59:29;3.30;;;3.00;;
12348;SDS011;5974;42.710;27.258;2023-11-19T09:01:56;3.43;;;3.13;;
12348;SDS011;5974;42.710;27.258;2023-11-19T09:04:24;3.17;;;2.87;;
12348;SDS011;5974;42.710;27.258;2023-11-19T09:06:51;2.97;;;2.77;;
12348;SDS011;5974;42.710;27.258;2023-11-19T09:09:18;3.47;;;3.03;;
12348;SDS011;5974;42.710;27.258;2023-11-19T09:11:45;3.37;;;3.07;;
12348;SDS011;5974;42.710;27.258;2023-11-19T09:14:12;3.57;;;2.77;;
12348;SDS011;5974;42.710;27.258;2023-11-19T09:16:39;3.17;;;2.97;;
12348;SDS011;5974;42.710;27.258;2023-11-19T09:19:06;3.13;;;2.87;;
12348;SDS011;5974;42.710;27.258;2023-11-19T09:21:34;3.33;;;3.00;;
12348;SDS011;5974;42.710;27.258;2023-11-19T09:24:03;3.33;;;3.03;;
12348;SDS011;5974;42.710;27.258;2023-11-19T09:26:32;2.80;;;2.60;;
12348;SDS011;5974;42.710;27.258;2023-11-19T09:28:59;3.53;;;2.80;;
12348;SDS011;5974;42.710;27.258;2023-11-19T09:31:26;2.80;;;2.60;;
12348;SDS011;5974;42.710;27.258;2023-11-19T09:33:53;4.73;;;3.17;;
12348;SDS011;5974;42.710;27.258;2023-11-19T09:36:20;2.77;;;2.57;;
12348;SDS011;5974;42.710;27.258;2023-11-19T09:38:48;3.07;;;2.77;;
12348;SDS011;5974;42.710;27.258;2023-11-19T09:41:15;3.03;;;2.53;;
12348;SDS011;5974;42.710;27.258;2023-11-19T09:43:44;3.40;;;2.70;;
12348;SDS011;5974;42.710;27.258;2023-11-19T09:46:12;11.97;;;7.23;;
12348;SDS011;5974;42.710;27.258;2023-11-19T09:48:41;3.00;;;2.70;;
12348;SDS011;5974;42.710;27.258;2023-11-19T09:51:09;3.20;;;3.00;;
12348;SDS011;5974;42.710;27.258;2023-11-19T09:53:36;4.60;;;2.73;;
12348;SDS011;5974;42.710;27.258;2023-11-19T09:56:06;3.70;;;2.80;;
12348;SDS011;5974;42.710;27.258;2023-11-19T09:58:34;4.40;;;4.00;;
12348;SDS011;5974;42.710;27.258;2023-11-19T10:01:01;2.77;;;2.57;;
12348;SDS011;5974;42.710;27.258;2023-11-19T10:03:33;3.50;;;3.00;;
12348;SDS011;5974;42.710;27.258;2023-11-19T10:06:03;3.20;;;2.90;;
12348;SDS011;5974;42.710;27.258;2023-11-19T10:08:31;2.90;;;2.70;;
12348;SDS011;5974;42.710;27.258;2023-11-19T10:10:58;3.57;;;3.10;;
12348;SDS011;5974;42.710;27.258;2023-11-19T10:13:27;3.00;;;2.80;;
12348;SDS011;5974;42.710;27.258;2023-11-19T10:15:55;3.10;;;2.90;;
12348;SDS011;5974;42.710;27.258;2023-11-19T10:18:23;3.30;;;3.00;;
12348;SDS011;5974;42.710;27.258;2023-11-19T10:20:51;2.80;;;2.60;;
12348;SDS011;5974;42.710;27.258;2023-11-19T10:23:20;4.27;;;3.03;;
12348;SDS011;5974;42.710;27.258;2023-11-19T10:25:47;3.47;;;3.17;;
12348;SDS011;5974;42.710;27.258;2023-11-19T10:28:14;3.07;;;2.87;;
12348;SDS011;5974;42.710;27.258;2023-11-19T10:30:44;3.87;;;3.57;;
12348;SDS011;5974;42.710;27.258;2023-11-19T10:33:14;3.50;;;3.20;;
12348;SDS011;5974;42.710;27.258;2023-11-19T10:35:51;3.30;;;3.00;;
12348;SDS011;5974;42.710;27.258;2023-11-19T10:38:20;3.53;;;3.23;;
12348;SDS011;5974;42.710;27.258;2023-11-19T10:40:47;3.57;;;3.37;;
12348;SDS011;5974;42.710;27.258;2023-11-19T10:43:14;3.73;;;3.43;;
12348;SDS011;5974;42.710;27.258;2023-11-19T10:45:41;3.90;;;3.43;;
12348;SDS011;5974;42.710;27.258;2023-11-19T10:48:09;4.17;;;3.37;;
12348;SDS011;5974;42.710;27.258;2023-11-19T10:50:39;3.80;;;3.50;;
12348;SDS011;5974;42.710;27.258;2023-11-19T10:53:09;3.57;;;3.30;;
12348;SDS011;5974;42.710;27.258;2023-11-19T10:55:38;3.60;;;3.30;;
12348;SDS011;5974;42.710;27.258;2023-11-19T10:58:06;3.47;;;3.17;;
12348;SDS011;5974;42.710;27.258;2023-11-19T11:00:34;3.87;;;3.43;;
12348;SDS011;5974;42.710;27.258;2023-11-19T11:03:08;3.80;;;3.50;;
12348;SDS011;5974;42.710;27.258;2023-11-19T11:05:38;4.20;;;3.50;;
12348;SDS011;5974;42.710;27.258;2023-11-19T11:08:06;4.33;;;3.60;;
12348;SDS011;5974;42.710;27.258;2023-11-19T11:10:35;3.80;;;3.50;;
12348;SDS011;5974;42.710;27.258;2023-11-19T11:13:06;4.60;;;4.20;;
12348;SDS011;5974;42.710;27.258;2023-11-19T11:15:33;4.17;;;3.37;;
12348;SDS011;5974;42.710;27.258;2023-11-19T11:18:01;3.60;;;3.30;;
12348;SDS011;5974;42.710;27.258;2023-11-19T11:20:30;3.90;;;3.07;;
12348;SDS011;5974;42.710;27.258;2023-11-19T11:23:11;4.13;;;3.07;;
12348;SDS011;5974;42.710;27.258;2023-11-19T11:26:09;3.20;;;2.90;;
12348;SDS011;5974;42.710;27.258;2023-11-19T11:28:57;3.23;;;2.70;;
12348;SDS011;5974;42.710;27.258;2023-11-19T11:31:31;3.30;;;3.00;;
12348;SDS011;5974;42.710;27.258;2023-11-19T11:34:13;4.13;;;2.77;;
12348;SDS011;5974;42.710;27.258;2023-11-19T11:37:06;2.97;;;2.77;;
12348;SDS011;5974;42.710;27.258;2023-11-19T11:39:45;2.93;;;2.73;;
12348;SDS011;5974;42.710;27.258;2023-11-19T11:42:30;2.73;;;2.50;;
12348;SDS011;5974;42.710;27.258;2023-11-19T11:44:58;2.70;;;2.50;;
12348;SDS011;5974;42.710;27.258;2023-11-19T11:47:38;2.97;;;2.70;;
12348;SDS011;5974;42.710;27.258;2023-11-19T11:50:48;2.80;;;2.60;;
12348;SDS011;5974;42.710;27.258;2023-11-19T11:53:18;3.37;;;2.43;;
12348;SDS011;5974;42.710;27.258;2023-11-19T11:55:54;2.73;;;2.53;;
12348;SDS011;5974;42.710;27.258;2023-11-19T11:58:35;2.60;;;2.40;;
12348;SDS011;5974;42.710;27.258;2023-11-19T12:01:04;2.53;;;2.33;;
12348;SDS011;5974;42.710;27.258;2023-11-19T12:03:34;2.33;;;2.13;;
12348;SDS011;5974;42.710;27.258;2023-11-19T12:06:01;2.60;;;2.40;;
12348;SDS011;5974;42.710;27.258;2023-11-19T12:08:29;2.47;;;2.30;;
12348;SDS011;5974;42.710;27.258;2023-11-19T12:10:57;2.87;;;2.67;;
12348;SDS011;5974;42.710;27.258;2023-11-19T12:13:29;2.70;;;2.50;;
12348;SDS011;5974;42.710;27.258;2023-11-19T12:16:10;2.53;;;2.40;;
12348;SDS011;5974;42.710;27.258;2023-11-19T12:18:40;2.20;;;2.10;;
12348;SDS011;5974;42.710;27.258;2023-11-19T12:21:08;2.63;;;2.43;;
12348;SDS011;5974;42.710;27.258;2023-11-19T12:23:43;2.50;;;2.30;;
12348;SDS011;5974;42.710;27.258;2023-11-19T12:29:06;2.13;;;2.03;;
12348;SDS011;5974;42.710;27.258;2023-11-19T12:31:33;2.47;;;2.13;;
12348;SDS011;5974;42.710;27.258;2023-11-19T12:34:07;2.63;;;2.43;;
12348;SDS011;5974;42.710;27.258;2023-11-19T12:36:38;2.17;;;2.07;;
12348;SDS011;5974;42.710;27.258;2023-11-19T12:39:08;2.00;;;1.90;;
12348;SDS011;5974;42.710;27.258;2023-11-19T12:41:50;2.53;;;1.73;;
12348;SDS011;5974;42.710;27.258;2023-11-19T12:44:18;1.90;;;1.80;;
12348;SDS011;5974;42.710;27.258;2023-11-19T12:46:44;2.13;;;2.03;;
12348;SDS011;5974;42.710;27.258;2023-11-19T12:49:11;2.33;;;2.10;;
12348;SDS011;5974;42.710;27.258;2023-11-19T12:51:38;2.00;;;1.80;;
12348;SDS011;5974;42.710;27.258;2023-11-19T12:54:05;2.17;;;1.97;;
12348;SDS011;5974;42.710;27.258;2023-11-19T12:56:34;2.27;;;2.17;;
12348;SDS011;5974;42.710;27.258;2023-11-19T12:59:10;5.63;;;2.23;;
12348;SDS011;5974;42.710;27.258;2023-11-19T13:01:37;1.97;;;1.87;;
12348;SDS011;5974;42.710;27.258;2023-11-19T13:04:15;3.73;;;2.27;;
12348;SDS011;5974;42.710;27.258;2023-11-19T13:06:44;2.73;;;2.53;;
12348;SDS011;5974;42.710;27.258;2023-11-19T13:09:21;3.07;;;2.60;;
12348;SDS011;5974;42.710;27.258;2023-11-19T13:11:50;2.30;;;2.03;;
12348;SDS011;5974;42.710;27.258;2023-11-19T13:14:17;2.50;;;2.30;;
12348;SDS011;5974;42.710;27.258;2023-11-19T13:16:45;2.70;;;2.50;;
12348;SDS011;5974;42.710;27.258;2023-11-19T13:19:13;2.23;;;2.03;;
12348;SDS011;5974;42.710;27.258;2023-11-19T13:21:41;2.47;;;2.30;;
12348;SDS011;5974;42.710;27.258;2023-11-19T13:24:11;3.30;;;3.00;;
12348;SDS011;5974;42.710;27.258;2023-11-19T13:26:38;3.00;;;2.80;;
12348;SDS011;5974;42.710;27.258;2023-11-19T13:29:06;3.60;;;3.20;;
12348;SDS011;5974;42.710;27.258;2023-11-19T13:31:33;3.00;;;2.80;;
12348;SDS011;5974;42.710;27.258;2023-11-19T13:34:00;3.43;;;3.00;;
12348;SDS011;5974;42.710;27.258;2023-11-19T13:36:27;2.07;;;1.97;;
12348;SDS011;5974;42.710;27.258;2023-11-19T13:38:54;2.80;;;2.60;;
12348;SDS011;5974;42.710;27.258;2023-11-19T13:41:24;2.50;;;2.40;;
12348;SDS011;5974;42.710;27.258;2023-11-19T13:43:51;2.17;;;2.07;;
12348;SDS011;5974;42.710;27.258;2023-11-19T13:46:19;2.90;;;2.60;;
12348;SDS011;5974;42.710;27.258;2023-11-19T13:48:46;4.53;;;3.20;;
12348;SDS011;5974;42.710;27.258;2023-11-19T13:51:15;3.07;;;2.77;;
12348;SDS011;5974;42.710;27.258;2023-11-19T13:53:42;2.90;;;2.70;;
12348;SDS011;5974;42.710;27.258;2023-11-19T13:56:09;2.93;;;2.73;;
12348;SDS011;5974;42.710;27.258;2023-11-19T13:58:36;3.20;;;2.90;;
12348;SDS011;5974;42.710;27.258;2023-11-19T14:01:03;2.80;;;2.60;;
12348;SDS011;5974;42.710;27.258;2023-11-19T14:03:32;3.53;;;2.40;;
12348;SDS011;5974;42.710;27.258;2023-11-19T14:05:59;2.37;;;2.17;;
12348;SDS011;5974;42.710;27.258;2023-11-19T14:08:26;3.10;;;2.50;;
12348;SDS011;5974;42.710;27.258;2023-11-19T14:10:53;4.60;;;3.50;;
12348;SDS011;5974;42.710;27.258;2023-11-19T14:13:21;3.77;;;3.47;;
12348;SDS011;5974;42.710;27.258;2023-11-19T14:15:48;2.80;;;2.60;;
12348;SDS011;5974;42.710;27.258;2023-11-19T14:18:15;2.73;;;2.53;;
12348;SDS011;5974;42.710;27.258;2023-11-19T14:20:44;2.50;;;2.30;;
12348;SDS011;5974;42.710;27.258;2023-11-19T14:23:11;2.60;;;2.40;;
12348;SDS011;5974;42.710;27.258;2023-11-19T14:25:39;2.60;;;2.40;;
12348;SDS011;5974;42.710;27.258;2023-11-19T14:28:06;3.20;;;3.00;;
12348;SDS011;5974;42.710;27.258;2023-11-19T14:30:33;3.40;;;3.10;;
12348;SDS011;5974;42.710;27.258;2023-11-19T14:33:00;2.97;;;2.77;;
12348;SDS011;5974;42.710;27.258;2023-11-19T14:35:28;2.67;;;2.47;;
12348;SDS011;5974;42.710;27.258;2023-11-19T14:37:56;2.50;;;2.40;;
12348;SDS011;5974;42.710;27.258;2023-11-19T14:40:23;3.43;;;3.17;;
12348;SDS011;5974;42.710;27.258;2023-11-19T14:42:50;3.93;;;2.97;;
12348;SDS011;5974;42.710;27.258;2023-11-19T14:45:17;2.77;;;2.57;;
12348;SDS011;5974;42.710;27.258;2023-11-19T14:47:44;3.07;;;2.83;;
12348;SDS011;5974;42.710;27.258;2023-11-19T14:50:11;3.47;;;3.17;;
12348;SDS011;5974;42.710;27.258;2023-11-19T14:52:38;5.20;;;4.00;;
12348;SDS011;5974;42.710;27.258;2023-11-19T14:55:07;4.50;;;4.10;;
12348;SDS011;5974;42.710;27.258;2023-11-19T14:57:34;5.30;;;4.80;;